createdAt,value
2023-02-01T00:02:20.993Z,78.55
2023-02-01T00:07:22.713Z,78.59
2023-02-01T00:12:24.383Z,78.84
2023-02-01T00:17:26.110Z,78.62
2023-02-01T00:22:27.702Z,78.16
2023-02-01T00:27:29.418Z,78.53
2023-02-01T00:32:32.818Z,78.21
2023-02-01T00:37:34.502Z,78.46
2023-02-01T00:42:36.185Z,78.34
2023-02-01T00:47:37.900Z,78.45
2023-02-01T00:52:39.785Z,78.31
2023-02-01T00:57:41.420Z,78.80
2023-02-01T01:02:43.308Z,78.91
2023-02-01T01:07:45.013Z,79.06
2023-02-01T01:12:46.604Z,79.01
2023-02-01T01:17:48.329Z,79.21
2023-02-01T01:22:50.228Z,79.18
2023-02-01T01:27:51.881Z,79.22
2023-02-01T01:32:53.537Z,79.23
2023-02-01T01:37:55.249Z,79.42
2023-02-01T01:42:57.931Z,79.87
2023-02-01T01:48:05.807Z,80.07
2023-02-01T01:53:10.932Z,80.67
2023-02-01T01:58:18.441Z,80.58
2023-02-01T02:03:23.334Z,80.26
2023-02-01T02:08:27.609Z,80.08
2023-02-01T02:13:34.875Z,80.44
2023-02-01T02:18:52.379Z,80.50
2023-02-01T02:24:32.226Z,80.51
2023-02-01T02:30:02.782Z,79.85
2023-02-01T02:35:25.780Z,79.95
2023-02-01T02:40:46.257Z,79.36
2023-02-01T02:46:22.478Z,79.65
2023-02-01T02:51:52.007Z,79.38
2023-02-01T02:57:16.474Z,79.48
2023-02-01T03:02:38.049Z,79.40
2023-02-01T03:07:57.940Z,79.58
2023-02-01T03:13:14.355Z,79.92
2023-02-01T03:18:24.752Z,79.78
2023-02-01T03:23:35.114Z,79.46
2023-02-01T03:28:39.316Z,79.75
2023-02-01T03:33:41.443Z,79.34
2023-02-01T03:39:24.971Z,79.14
2023-02-01T03:44:32.215Z,79.27
2023-02-01T03:49:42.865Z,79.14
2023-02-01T03:54:46.381Z,79.10
2023-02-01T03:59:47.998Z,78.94
2023-02-01T04:04:49.883Z,79.10
2023-02-01T04:09:54.267Z,78.96
2023-02-01T04:14:56.235Z,78.99
2023-02-01T04:19:57.963Z,79.15
2023-02-01T04:24:59.597Z,78.99
2023-02-01T04:30:01.281Z,78.94
2023-02-01T04:35:03.778Z,78.83
2023-02-01T04:40:06.100Z,78.96
2023-02-01T04:45:08.183Z,78.89
2023-02-01T04:50:11.522Z,78.93
2023-02-01T04:55:16.208Z,79.07
2023-02-01T05:00:18.323Z,79.24
2023-02-01T05:05:21.709Z,78.84
2023-02-01T05:10:23.858Z,78.96
2023-02-01T05:15:25.765Z,78.84
2023-02-01T05:20:27.551Z,78.91
2023-02-01T05:25:29.307Z,78.79
2023-02-01T05:30:31.256Z,78.86
2023-02-01T05:35:32.992Z,78.92
2023-02-01T05:40:34.722Z,79.04
2023-02-01T05:45:36.419Z,78.93
2023-02-01T05:50:38.055Z,79.06
2023-02-01T05:55:44.191Z,79.34
2023-02-01T06:00:45.960Z,79.62
2023-02-01T06:05:48.743Z,79.99
2023-02-01T06:10:50.370Z,79.75
2023-02-01T06:15:52.358Z,79.97
2023-02-01T06:20:56.028Z,79.91
2023-02-01T06:26:06.866Z,79.56
2023-02-01T06:31:08.850Z,79.57
2023-02-01T06:36:13.176Z,79.93
2023-02-01T06:41:14.922Z,79.40
2023-02-01T06:46:16.626Z,79.22
2023-02-01T06:51:24.274Z,79.39
2023-02-01T06:56:26.476Z,79.20
2023-02-01T07:01:28.288Z,79.33
2023-02-01T07:06:30.148Z,79.22
2023-02-01T07:11:32.921Z,78.52
2023-02-01T07:16:34.623Z,79.03
2023-02-01T07:21:36.431Z,78.93
2023-02-01T07:26:38.114Z,79.45
2023-02-01T07:31:39.795Z,79.04
2023-02-01T07:36:41.509Z,79.06
2023-02-01T07:41:43.359Z,78.72
2023-02-01T07:46:48.207Z,78.36
2023-02-01T07:51:49.990Z,78.02
2023-02-01T07:56:51.816Z,77.72
2023-02-01T08:01:53.590Z,78.03
2023-02-01T08:06:57.435Z,77.53
2023-02-01T08:11:59.261Z,77.56
2023-02-01T08:17:01.023Z,77.47
2023-02-01T08:22:07.141Z,78.27
2023-02-01T08:27:08.975Z,78.40
2023-02-01T08:32:10.771Z,78.27
2023-02-01T08:37:12.546Z,78.35
2023-02-01T08:42:32.829Z,78.05
2023-02-01T08:47:35.556Z,77.23
2023-02-01T08:52:38.264Z,76.93
2023-02-01T08:57:40.257Z,77.75
2023-02-01T09:02:42.312Z,80.74
2023-02-01T09:07:43.976Z,81.29
2023-02-01T09:12:45.828Z,81.56
2023-02-01T09:17:47.702Z,81.16
2023-02-01T09:22:49.357Z,80.68
2023-02-01T09:27:51.135Z,80.31
2023-02-01T09:32:52.895Z,80.21
2023-02-01T09:37:55.167Z,79.69
2023-02-01T09:43:12.154Z,80.53
2023-02-01T09:48:18.706Z,81.39
2023-02-01T09:53:38.628Z,82.66
2023-02-01T09:58:44.093Z,82.65
2023-02-01T10:03:46.052Z,82.92
2023-02-01T10:09:32.053Z,82.47
2023-02-01T10:14:45.797Z,82.65
2023-02-01T10:19:59.408Z,84.42
2023-02-01T10:25:24.056Z,85.65
2023-02-01T10:30:34.671Z,86.00
2023-02-01T10:35:39.475Z,87.44
2023-02-01T10:40:41.806Z,88.22
2023-02-01T10:45:43.957Z,88.96
2023-02-01T10:50:56.251Z,86.54
2023-02-01T10:55:58.223Z,84.92
2023-02-01T11:01:08.707Z,83.54
2023-02-01T11:06:32.147Z,83.33
2023-02-01T11:11:53.220Z,81.58
2023-02-01T11:17:25.755Z,81.13
2023-02-01T11:22:30.383Z,79.85
2023-02-01T11:27:34.732Z,78.11
2023-02-01T11:32:40.596Z,78.10
2023-02-01T11:37:44.326Z,78.04
2023-02-01T11:43:17.083Z,77.45
2023-02-01T11:48:26.749Z,78.01
2023-02-01T11:54:02.788Z,80.81
2023-02-01T11:59:32.726Z,82.82
2023-02-01T12:04:46.534Z,83.01
2023-02-01T12:10:16.392Z,82.04
2023-02-01T12:15:48.387Z,82.87
2023-02-01T12:21:04.542Z,83.29
2023-02-01T12:26:36.292Z,82.27
2023-02-01T12:32:00.361Z,81.65
2023-02-01T12:37:20.791Z,81.54
2023-02-01T12:42:27.696Z,79.75
2023-02-01T12:47:36.232Z,78.29
2023-02-01T12:52:49.284Z,78.26
2023-02-01T12:58:13.872Z,76.34
2023-02-01T13:03:38.609Z,76.10
2023-02-01T13:09:07.219Z,75.74
2023-02-01T13:14:47.332Z,75.35
2023-02-01T13:20:00.564Z,73.85
2023-02-01T13:25:10.709Z,73.38
2023-02-01T13:30:25.207Z,73.18
2023-02-01T13:35:49.015Z,73.33
2023-02-01T13:41:16.614Z,72.05
2023-02-01T13:46:19.854Z,72.39
2023-02-01T13:51:45.412Z,72.33
2023-02-01T13:56:47.430Z,71.57
2023-02-01T14:01:49.794Z,72.25
2023-02-01T14:06:53.866Z,71.88
2023-02-01T14:11:59.197Z,71.74
2023-02-01T14:17:00.900Z,71.35
2023-02-01T14:22:25.031Z,71.71
2023-02-01T14:27:30.187Z,71.68
2023-02-01T14:32:41.764Z,71.66
2023-02-01T14:37:45.548Z,71.82
2023-02-01T14:42:53.386Z,71.09
2023-02-01T14:48:07.271Z,70.88
2023-02-01T14:53:14.919Z,70.68
2023-02-01T14:58:36.049Z,70.86
2023-02-01T15:03:40.651Z,69.83
2023-02-01T15:08:42.429Z,70.23
2023-02-01T15:13:55.530Z,70.41
2023-02-01T15:19:12.482Z,69.57
2023-02-01T15:24:35.539Z,70.24
2023-02-01T15:29:37.412Z,70.52
2023-02-01T15:34:50.573Z,70.40
2023-02-01T15:40:10.606Z,70.19
2023-02-01T15:45:20.765Z,70.39
2023-02-01T15:50:25.397Z,70.49
2023-02-01T15:55:36.559Z,70.63
2023-02-01T16:00:46.376Z,70.22
2023-02-01T16:05:57.475Z,70.68
2023-02-01T16:11:16.034Z,70.33
2023-02-01T16:16:18.266Z,69.38
2023-02-01T16:21:20.747Z,69.09
2023-02-01T16:26:22.503Z,69.01
2023-02-01T16:31:29.237Z,69.26
2023-02-01T16:36:31.556Z,69.11
2023-02-01T16:41:33.793Z,68.78
2023-02-01T16:46:40.678Z,68.73
2023-02-01T16:51:42.405Z,69.37
2023-02-01T16:56:46.313Z,69.17
2023-02-01T17:01:48.225Z,69.20
2023-02-01T17:06:50.542Z,69.44
2023-02-01T17:11:52.273Z,69.39
2023-02-01T17:16:54.556Z,68.99
2023-02-01T17:21:59.436Z,69.47
2023-02-01T17:27:01.160Z,68.88
2023-02-01T17:32:06.482Z,68.88
2023-02-01T17:37:24.830Z,68.77
2023-02-01T17:42:28.853Z,68.09
2023-02-01T17:47:30.648Z,68.15
2023-02-01T17:52:32.329Z,68.05
2023-02-01T17:57:34.137Z,68.29
2023-02-01T18:02:35.941Z,68.30
2023-02-01T18:07:37.766Z,68.38
2023-02-01T18:12:40.192Z,68.41
2023-02-01T18:17:41.950Z,68.46
2023-02-01T18:22:45.029Z,68.27
2023-02-01T18:27:48.614Z,68.25
2023-02-01T18:32:50.979Z,68.20
2023-02-01T18:37:55.077Z,68.10
2023-02-01T18:42:57.324Z,68.10
2023-02-01T18:47:59.907Z,68.26
2023-02-01T18:53:10.616Z,67.78
2023-02-01T18:58:15.932Z,68.22
2023-02-01T19:03:18.484Z,68.47
2023-02-01T19:08:21.499Z,68.01
2023-02-01T19:13:24.501Z,67.80
2023-02-01T19:18:26.240Z,68.03
2023-02-01T19:23:28.089Z,67.63
2023-02-01T19:28:29.941Z,67.07
2023-02-01T19:33:32.659Z,67.13
2023-02-01T19:38:34.463Z,66.68
2023-02-01T19:43:36.878Z,67.04
2023-02-01T19:48:38.930Z,67.13
2023-02-01T19:53:40.659Z,66.96
2023-02-01T19:58:42.393Z,67.04
2023-02-01T20:03:43.436Z,67.30
2023-02-01T20:08:48.220Z,67.02
2023-02-01T20:13:52.538Z,66.93
2023-02-01T20:18:54.196Z,67.02
2023-02-01T20:23:55.967Z,66.41
2023-02-01T20:28:59.021Z,66.93
2023-02-01T20:34:02.993Z,67.20
2023-02-01T20:39:05.400Z,67.05
2023-02-01T20:44:07.197Z,67.28
2023-02-01T20:49:09.061Z,67.41
2023-02-01T20:54:10.797Z,67.28
2023-02-01T20:59:14.332Z,67.60
2023-02-01T21:04:16.077Z,67.37
2023-02-01T21:09:18.135Z,67.78
2023-02-01T21:14:20.401Z,68.05
2023-02-01T21:19:25.259Z,67.47
2023-02-01T21:24:27.712Z,68.02
2023-02-01T21:29:29.469Z,68.47
2023-02-01T21:34:31.197Z,67.51
2023-02-01T21:39:32.950Z,67.85
2023-02-01T21:44:37.017Z,67.98
2023-02-01T21:49:39.349Z,67.66
2023-02-01T21:54:41.609Z,67.53
2023-02-01T21:59:44.731Z,67.71
2023-02-01T22:04:49.004Z,67.85
2023-02-01T22:09:50.703Z,68.00
2023-02-01T22:14:52.484Z,68.38
2023-02-01T22:19:54.171Z,68.87
2023-02-01T22:24:55.895Z,69.15
2023-02-01T22:29:57.601Z,69.28
2023-02-01T22:34:59.315Z,69.69
2023-02-01T22:40:02.199Z,69.75
2023-02-01T22:45:04.655Z,70.48
2023-02-01T22:50:06.983Z,71.37
2023-02-01T22:55:08.869Z,71.75
2023-02-01T23:00:11.287Z,71.81
2023-02-01T23:05:13.187Z,72.10
2023-02-01T23:10:19.384Z,73.06
2023-02-01T23:15:21.284Z,72.64
2023-02-01T23:20:23.323Z,73.42
2023-02-01T23:25:26.172Z,74.39
2023-02-01T23:30:28.632Z,74.87
2023-02-01T23:35:30.454Z,75.41
2023-02-01T23:40:32.126Z,75.99
2023-02-01T23:45:33.872Z,76.09
2023-02-01T23:50:35.565Z,76.16
2023-02-01T23:55:37.278Z,76.06
